sensor_id;sensor_type;location;lat;lon;timestamp;P1;durP1;ratioP1;P2;durP2;ratioP2
6735;SDS011;3405;50.576;12.364;2023-08-08T00:01:26;5.63;;;1.80;;
6735;SDS011;3405;50.576;12.364;2023-08-08T00:03:52;4.47;;;1.90;;
6735;SDS011;3405;50.576;12.364;2023-08-08T00:06:18;4.60;;;1.73;;
6735;SDS011;3405;50.576;12.364;2023-08-08T00:08:44;3.25;;;1.83;;
6735;SDS011;3405;50.576;12.364;2023-08-08T00:11:10;3.25;;;1.83;;
6735;SDS011;3405;50.576;12.364;2023-08-08T00:13:36;1.88;;;1.60;;
6735;SDS011;3405;50.576;12.364;2023-08-08T00:16:02;2.58;;;1.83;;
6735;SDS011;3405;50.576;12.364;2023-08-08T00:18:28;4.10;;;2.03;;
6735;SDS011;3405;50.576;12.364;2023-08-08T00:20:54;3.38;;;1.50;;
6735;SDS011;3405;50.576;12.364;2023-08-08T00:23:20;1.92;;;1.70;;
6735;SDS011;3405;50.576;12.364;2023-08-08T00:25:45;3.47;;;1.70;;
6735;SDS011;3405;50.576;12.364;2023-08-08T00:28:16;3.83;;;1.77;;
6735;SDS011;3405;50.576;12.364;2023-08-08T00:30:42;5.28;;;1.60;;
6735;SDS011;3405;50.576;12.364;2023-08-08T00:33:08;2.58;;;1.77;;
6735;SDS011;3405;50.576;12.364;2023-08-08T00:35:34;1.98;;;1.70;;
6735;SDS011;3405;50.576;12.364;2023-08-08T00:38:00;2.80;;;1.40;;
6735;SDS011;3405;50.576;12.364;2023-08-08T00:40:26;2.75;;;1.90;;
6735;SDS011;3405;50.576;12.364;2023-08-08T00:42:51;3.10;;;1.50;;
6735;SDS011;3405;50.576;12.364;2023-08-08T00:45:17;3.17;;;1.70;;
6735;SDS011;3405;50.576;12.364;2023-08-08T00:47:43;1.90;;;1.48;;
6735;SDS011;3405;50.576;12.364;2023-08-08T00:50:10;1.50;;;1.40;;
6735;SDS011;3405;50.576;12.364;2023-08-08T00:52:37;5.38;;;1.98;;
6735;SDS011;3405;50.576;12.364;2023-08-08T00:55:03;3.63;;;1.58;;
6735;SDS011;3405;50.576;12.364;2023-08-08T00:57:29;1.60;;;1.45;;
6735;SDS011;3405;50.576;12.364;2023-08-08T00:59:55;6.43;;;1.88;;
6735;SDS011;3405;50.576;12.364;2023-08-08T01:02:21;2.85;;;1.50;;
6735;SDS011;3405;50.576;12.364;2023-08-08T01:04:47;3.15;;;1.70;;
6735;SDS011;3405;50.576;12.364;2023-08-08T01:07:25;3.47;;;2.35;;
6735;SDS011;3405;50.576;12.364;2023-08-08T01:10:00;2.25;;;1.60;;
6735;SDS011;3405;50.576;12.364;2023-08-08T01:12:31;3.58;;;1.90;;
6735;SDS011;3405;50.576;12.364;2023-08-08T01:14:58;2.25;;;1.70;;
6735;SDS011;3405;50.576;12.364;2023-08-08T01:17:24;3.63;;;1.50;;
6735;SDS011;3405;50.576;12.364;2023-08-08T01:19:50;1.98;;;1.48;;
6735;SDS011;3405;50.576;12.364;2023-08-08T01:22:23;5.05;;;1.75;;
6735;SDS011;3405;50.576;12.364;2023-08-08T01:24:50;1.77;;;1.48;;
6735;SDS011;3405;50.576;12.364;2023-08-08T01:27:16;3.08;;;1.73;;
6735;SDS011;3405;50.576;12.364;2023-08-08T01:29:42;2.03;;;1.40;;
6735;SDS011;3405;50.576;12.364;2023-08-08T01:32:08;3.60;;;1.27;;
6735;SDS011;3405;50.576;12.364;2023-08-08T01:34:35;3.25;;;1.50;;
6735;SDS011;3405;50.576;12.364;2023-08-08T01:37:24;2.90;;;1.50;;
6735;SDS011;3405;50.576;12.364;2023-08-08T01:39:47;2.30;;;1.38;;
6735;SDS011;3405;50.576;12.364;2023-08-08T01:42:14;2.92;;;1.65;;
6735;SDS011;3405;50.576;12.364;2023-08-08T01:44:41;1.90;;;1.38;;
6735;SDS011;3405;50.576;12.364;2023-08-08T01:47:08;2.35;;;1.50;;
6735;SDS011;3405;50.576;12.364;2023-08-08T01:49:34;1.80;;;1.50;;
6735;SDS011;3405;50.576;12.364;2023-08-08T01:51:59;2.83;;;1.50;;
6735;SDS011;3405;50.576;12.364;2023-08-08T01:54:25;3.53;;;1.50;;
6735;SDS011;3405;50.576;12.364;2023-08-08T01:56:51;2.03;;;1.38;;
6735;SDS011;3405;50.576;12.364;2023-08-08T01:59:17;2.88;;;1.42;;
6735;SDS011;3405;50.576;12.364;2023-08-08T02:01:43;2.03;;;1.25;;
6735;SDS011;3405;50.576;12.364;2023-08-08T02:04:09;3.17;;;1.40;;
6735;SDS011;3405;50.576;12.364;2023-08-08T02:06:35;1.75;;;1.30;;
6735;SDS011;3405;50.576;12.364;2023-08-08T02:09:01;4.18;;;1.50;;
6735;SDS011;3405;50.576;12.364;2023-08-08T02:11:27;2.78;;;1.48;;
6735;SDS011;3405;50.576;12.364;2023-08-08T02:13:53;2.58;;;1.38;;
6735;SDS011;3405;50.576;12.364;2023-08-08T02:16:19;2.35;;;1.50;;
6735;SDS011;3405;50.576;12.364;2023-08-08T02:18:45;1.27;;;1.17;;
6735;SDS011;3405;50.576;12.364;2023-08-08T02:21:11;4.85;;;1.60;;
6735;SDS011;3405;50.576;12.364;2023-08-08T02:23:36;3.25;;;2.00;;
6735;SDS011;3405;50.576;12.364;2023-08-08T02:26:03;2.83;;;1.20;;
6735;SDS011;3405;50.576;12.364;2023-08-08T02:28:29;3.88;;;1.40;;
6735;SDS011;3405;50.576;12.364;2023-08-08T02:30:55;2.08;;;1.40;;
6735;SDS011;3405;50.576;12.364;2023-08-08T02:33:21;1.70;;;1.10;;
6735;SDS011;3405;50.576;12.364;2023-08-08T02:35:47;2.85;;;1.40;;
6735;SDS011;3405;50.576;12.364;2023-08-08T02:38:13;5.63;;;1.58;;
6735;SDS011;3405;50.576;12.364;2023-08-08T02:40:39;2.55;;;1.50;;
6735;SDS011;3405;50.576;12.364;2023-08-08T02:43:04;2.20;;;1.38;;
6735;SDS011;3405;50.576;12.364;2023-08-08T02:45:31;1.80;;;1.27;;
6735;SDS011;3405;50.576;12.364;2023-08-08T02:47:59;3.85;;;1.45;;
6735;SDS011;3405;50.576;12.364;2023-08-08T02:50:25;4.75;;;1.73;;
6735;SDS011;3405;50.576;12.364;2023-08-08T02:52:51;2.25;;;1.65;;
6735;SDS011;3405;50.576;12.364;2023-08-08T02:55:17;1.40;;;1.30;;
6735;SDS011;3405;50.576;12.364;2023-08-08T02:57:43;2.83;;;1.08;;
6735;SDS011;3405;50.576;12.364;2023-08-08T03:00:09;1.58;;;1.30;;
6735;SDS011;3405;50.576;12.364;2023-08-08T03:02:36;1.52;;;1.42;;
6735;SDS011;3405;50.576;12.364;2023-08-08T03:05:02;3.67;;;1.65;;
6735;SDS011;3405;50.576;12.364;2023-08-08T03:07:29;2.42;;;1.50;;
6735;SDS011;3405;50.576;12.364;2023-08-08T03:09:55;2.67;;;1.50;;
6735;SDS011;3405;50.576;12.364;2023-08-08T03:12:21;2.38;;;1.45;;
6735;SDS011;3405;50.576;12.364;2023-08-08T03:14:47;3.15;;;1.65;;
6735;SDS011;3405;50.576;12.364;2023-08-08T03:17:13;1.60;;;1.20;;
6735;SDS011;3405;50.576;12.364;2023-08-08T03:19:39;6.25;;;1.85;;
6735;SDS011;3405;50.576;12.364;2023-08-08T03:22:04;6.82;;;1.73;;
6735;SDS011;3405;50.576;12.364;2023-08-08T03:24:30;2.75;;;1.52;;
6735;SDS011;3405;50.576;12.364;2023-08-08T03:26:56;4.05;;;1.75;;
6735;SDS011;3405;50.576;12.364;2023-08-08T03:29:22;2.53;;;1.65;;
6735;SDS011;3405;50.576;12.364;2023-08-08T03:31:48;4.32;;;1.60;;
6735;SDS011;3405;50.576;12.364;2023-08-08T03:34:14;3.90;;;1.80;;
6735;SDS011;3405;50.576;12.364;2023-08-08T03:36:40;3.08;;;1.55;;
6735;SDS011;3405;50.576;12.364;2023-08-08T03:39:06;5.28;;;1.95;;
6735;SDS011;3405;50.576;12.364;2023-08-08T03:41:33;4.28;;;2.08;;
6735;SDS011;3405;50.576;12.364;2023-08-08T03:43:59;6.10;;;2.42;;
6735;SDS011;3405;50.576;12.364;2023-08-08T03:46:24;4.75;;;2.30;;
6735;SDS011;3405;50.576;12.364;2023-08-08T03:48:50;6.40;;;2.15;;
6735;SDS011;3405;50.576;12.364;2023-08-08T03:51:16;7.43;;;1.98;;
6735;SDS011;3405;50.576;12.364;2023-08-08T03:53:42;3.35;;;2.00;;
6735;SDS011;3405;50.576;12.364;2023-08-08T03:56:08;6.60;;;2.33;;
6735;SDS011;3405;50.576;12.364;2023-08-08T03:58:34;6.82;;;2.22;;
6735;SDS011;3405;50.576;12.364;2023-08-08T04:01:00;3.50;;;1.83;;
6735;SDS011;3405;50.576;12.364;2023-08-08T04:03:26;4.25;;;1.92;;
6735;SDS011;3405;50.576;12.364;2023-08-08T04:05:52;6.18;;;2.20;;
6735;SDS011;3405;50.576;12.364;2023-08-08T04:08:18;3.22;;;2.00;;
6735;SDS011;3405;50.576;12.364;2023-08-08T04:10:45;3.83;;;1.70;;
6735;SDS011;3405;50.576;12.364;2023-08-08T04:13:14;6.95;;;1.77;;
6735;SDS011;3405;50.576;12.364;2023-08-08T04:15:40;4.15;;;1.88;;
6735;SDS011;3405;50.576;12.364;2023-08-08T04:18:06;4.68;;;2.03;;
6735;SDS011;3405;50.576;12.364;2023-08-08T04:20:33;6.63;;;1.95;;
6735;SDS011;3405;50.576;12.364;2023-08-08T04:22:59;5.65;;;2.25;;
6735;SDS011;3405;50.576;12.364;2023-08-08T04:25:25;3.03;;;1.67;;
6735;SDS011;3405;50.576;12.364;2023-08-08T04:27:51;3.30;;;1.52;;
6735;SDS011;3405;50.576;12.364;2023-08-08T04:30:17;4.07;;;1.92;;
6735;SDS011;3405;50.576;12.364;2023-08-08T04:32:43;3.42;;;1.60;;
6735;SDS011;3405;50.576;12.364;2023-08-08T04:35:09;3.05;;;1.70;;
6735;SDS011;3405;50.576;12.364;2023-08-08T04:37:35;3.03;;;1.70;;
6735;SDS011;3405;50.576;12.364;2023-08-08T04:40:01;6.30;;;2.03;;
6735;SDS011;3405;50.576;12.364;2023-08-08T04:42:28;4.47;;;1.98;;
6735;SDS011;3405;50.576;12.364;2023-08-08T04:44:54;2.17;;;1.75;;
6735;SDS011;3405;50.576;12.364;2023-08-08T04:47:20;2.08;;;1.70;;
6735;SDS011;3405;50.576;12.364;2023-08-08T04:49:46;4.80;;;2.00;;
6735;SDS011;3405;50.576;12.364;2023-08-08T04:52:12;5.00;;;1.77;;
6735;SDS011;3405;50.576;12.364;2023-08-08T04:54:38;3.10;;;1.65;;
6735;SDS011;3405;50.576;12.364;2023-08-08T04:57:04;3.53;;;2.05;;
6735;SDS011;3405;50.576;12.364;2023-08-08T04:59:30;2.42;;;1.70;;
6735;SDS011;3405;50.576;12.364;2023-08-08T05:01:56;5.07;;;1.90;;
6735;SDS011;3405;50.576;12.364;2023-08-08T05:04:22;6.43;;;1.90;;
6735;SDS011;3405;50.576;12.364;2023-08-08T05:06:47;5.32;;;1.88;;
6735;SDS011;3405;50.576;12.364;2023-08-08T05:09:13;8.23;;;2.03;;
6735;SDS011;3405;50.576;12.364;2023-08-08T05:11:40;4.97;;;1.98;;
6735;SDS011;3405;50.576;12.364;2023-08-08T05:14:06;3.80;;;1.73;;
6735;SDS011;3405;50.576;12.364;2023-08-08T05:16:32;2.63;;;1.70;;
6735;SDS011;3405;50.576;12.364;2023-08-08T05:18:58;2.72;;;1.63;;
6735;SDS011;3405;50.576;12.364;2023-08-08T05:21:24;3.17;;;1.77;;
6735;SDS011;3405;50.576;12.364;2023-08-08T05:23:50;4.15;;;1.98;;
6735;SDS011;3405;50.576;12.364;2023-08-08T05:26:16;3.95;;;1.50;;
6735;SDS011;3405;50.576;12.364;2023-08-08T05:28:42;2.05;;;1.52;;
6735;SDS011;3405;50.576;12.364;2023-08-08T05:31:08;2.58;;;1.65;;
6735;SDS011;3405;50.576;12.364;2023-08-08T05:33:35;2.25;;;1.35;;
6735;SDS011;3405;50.576;12.364;2023-08-08T05:36:01;3.40;;;1.90;;
6735;SDS011;3405;50.576;12.364;2023-08-08T05:38:27;5.13;;;1.70;;
6735;SDS011;3405;50.576;12.364;2023-08-08T05:40:53;6.55;;;1.88;;
6735;SDS011;3405;50.576;12.364;2023-08-08T05:43:18;3.17;;;1.73;;
6735;SDS011;3405;50.576;12.364;2023-08-08T05:45:46;4.68;;;2.10;;
6735;SDS011;3405;50.576;12.364;2023-08-08T05:48:12;8.80;;;2.10;;
6735;SDS011;3405;50.576;12.364;2023-08-08T05:50:38;4.88;;;1.50;;
6735;SDS011;3405;50.576;12.364;2023-08-08T05:53:04;4.75;;;1.90;;
6735;SDS011;3405;50.576;12.364;2023-08-08T05:55:30;2.40;;;2.20;;
6735;SDS011;3405;50.576;12.364;2023-08-08T05:57:56;4.50;;;3.08;;
6735;SDS011;3405;50.576;12.364;2023-08-08T06:00:22;7.70;;;4.22;;
6735;SDS011;3405;50.576;12.364;2023-08-08T06:02:48;4.97;;;3.28;;
6735;SDS011;3405;50.576;12.364;2023-08-08T06:05:15;3.67;;;2.80;;
6735;SDS011;3405;50.576;12.364;2023-08-08T06:07:41;4.18;;;2.55;;
6735;SDS011;3405;50.576;12.364;2023-08-08T06:10:07;5.00;;;2.45;;
6735;SDS011;3405;50.576;12.364;2023-08-08T06:12:34;7.45;;;2.50;;
6735;SDS011;3405;50.576;12.364;2023-08-08T06:14:59;5.18;;;2.53;;
6735;SDS011;3405;50.576;12.364;2023-08-08T06:17:25;4.05;;;2.10;;
6735;SDS011;3405;50.576;12.364;2023-08-08T06:19:51;6.03;;;2.17;;
6735;SDS011;3405;50.576;12.364;2023-08-08T06:22:19;4.40;;;2.08;;
6735;SDS011;3405;50.576;12.364;2023-08-08T06:24:45;5.03;;;2.58;;
6735;SDS011;3405;50.576;12.364;2023-08-08T06:27:12;5.30;;;2.40;;
6735;SDS011;3405;50.576;12.364;2023-08-08T06:29:38;6.15;;;2.20;;
6735;SDS011;3405;50.576;12.364;2023-08-08T06:32:04;6.95;;;2.50;;
6735;SDS011;3405;50.576;12.364;2023-08-08T06:34:30;9.00;;;2.55;;
6735;SDS011;3405;50.576;12.364;2023-08-08T06:36:56;4.20;;;2.60;;
6735;SDS011;3405;50.576;12.364;2023-08-08T06:39:22;2.72;;;2.10;;
6735;SDS011;3405;50.576;12.364;2023-08-08T06:41:48;3.10;;;2.20;;
6735;SDS011;3405;50.576;12.364;2023-08-08T06:44:14;2.35;;;2.10;;
6735;SDS011;3405;50.576;12.364;2023-08-08T06:46:40;4.57;;;2.15;;
6735;SDS011;3405;50.576;12.364;2023-08-08T06:49:06;3.67;;;2.20;;
6735;SDS011;3405;50.576;12.364;2023-08-08T06:51:33;4.20;;;2.03;;
6735;SDS011;3405;50.576;12.364;2023-08-08T06:54:00;2.28;;;2.08;;
6735;SDS011;3405;50.576;12.364;2023-08-08T06:56:26;3.70;;;2.15;;
6735;SDS011;3405;50.576;12.364;2023-08-08T06:58:52;4.40;;;2.08;;
6735;SDS011;3405;50.576;12.364;2023-08-08T07:01:18;3.72;;;1.92;;
6735;SDS011;3405;50.576;12.364;2023-08-08T07:03:44;6.07;;;2.15;;
6735;SDS011;3405;50.576;12.364;2023-08-08T07:06:11;3.25;;;2.20;;
6735;SDS011;3405;50.576;12.364;2023-08-08T07:08:37;3.75;;;2.10;;
6735;SDS011;3405;50.576;12.364;2023-08-08T07:11:06;2.70;;;1.90;;
6735;SDS011;3405;50.576;12.364;2023-08-08T07:13:32;2.25;;;1.80;;
6735;SDS011;3405;50.576;12.364;2023-08-08T07:15:58;6.95;;;1.98;;
6735;SDS011;3405;50.576;12.364;2023-08-08T07:18:24;2.63;;;2.10;;
6735;SDS011;3405;50.576;12.364;2023-08-08T07:20:50;10.65;;;2.00;;
6735;SDS011;3405;50.576;12.364;2023-08-08T07:23:16;4.30;;;2.20;;
6735;SDS011;3405;50.576;12.364;2023-08-08T07:25:42;3.38;;;2.08;;
6735;SDS011;3405;50.576;12.364;2023-08-08T07:28:08;4.18;;;2.10;;
6735;SDS011;3405;50.576;12.364;2023-08-08T07:30:35;5.07;;;1.90;;
6735;SDS011;3405;50.576;12.364;2023-08-08T07:33:01;3.13;;;2.25;;
6735;SDS011;3405;50.576;12.364;2023-08-08T07:35:27;2.92;;;1.52;;
6735;SDS011;3405;50.576;12.364;2023-08-08T07:37:53;2.38;;;1.70;;
6735;SDS011;3405;50.576;12.364;2023-08-08T07:40:19;4.43;;;2.60;;
6735;SDS011;3405;50.576;12.364;2023-08-08T07:42:46;3.88;;;2.03;;
6735;SDS011;3405;50.576;12.364;2023-08-08T07:45:12;3.22;;;2.05;;
6735;SDS011;3405;50.576;12.364;2023-08-08T07:47:38;3.20;;;2.15;;
6735;SDS011;3405;50.576;12.364;2023-08-08T07:50:04;4.00;;;1.85;;
6735;SDS011;3405;50.576;12.364;2023-08-08T07:52:33;3.55;;;1.80;;
6735;SDS011;3405;50.576;12.364;2023-08-08T07:54:59;5.32;;;2.03;;
6735;SDS011;3405;50.576;12.364;2023-08-08T07:57:26;4.28;;;1.88;;
6735;SDS011;3405;50.576;12.364;2023-08-08T07:59:52;5.22;;;2.00;;
6735;SDS011;3405;50.576;12.364;2023-08-08T08:02:18;4.57;;;1.90;;
6735;SDS011;3405;50.576;12.364;2023-08-08T08:04:43;5.63;;;2.53;;
6735;SDS011;3405;50.576;12.364;2023-08-08T08:07:09;3.40;;;2.33;;
6735;SDS011;3405;50.576;12.364;2023-08-08T08:09:35;6.03;;;1.98;;
6735;SDS011;3405;50.576;12.364;2023-08-08T08:12:01;6.13;;;1.90;;
6735;SDS011;3405;50.576;12.364;2023-08-08T08:14:27;5.55;;;2.42;;
6735;SDS011;3405;50.576;12.364;2023-08-08T08:16:53;6.63;;;2.15;;
6735;SDS011;3405;50.576;12.364;2023-08-08T08:19:19;3.40;;;1.80;;
6735;SDS011;3405;50.576;12.364;2023-08-08T08:21:46;3.20;;;1.48;;
6735;SDS011;3405;50.576;12.364;2023-08-08T08:24:11;3.38;;;1.70;;
6735;SDS011;3405;50.576;12.364;2023-08-08T08:26:37;6.25;;;1.73;;
6735;SDS011;3405;50.576;12.364;2023-08-08T08:29:03;2.38;;;1.67;;
6735;SDS011;3405;50.576;12.364;2023-08-08T08:31:29;4.47;;;1.48;;
6735;SDS011;3405;50.576;12.364;2023-08-08T08:33:55;2.50;;;1.73;;
6735;SDS011;3405;50.576;12.364;2023-08-08T08:36:21;4.45;;;1.58;;
6735;SDS011;3405;50.576;12.364;2023-08-08T08:38:47;3.38;;;1.80;;
6735;SDS011;3405;50.576;12.364;2023-08-08T08:41:14;2.85;;;1.60;;
6735;SDS011;3405;50.576;12.364;2023-08-08T08:43:41;2.05;;;1.52;;
6735;SDS011;3405;50.576;12.364;2023-08-08T08:46:07;2.53;;;1.48;;
6735;SDS011;3405;50.576;12.364;2023-08-08T08:48:34;3.00;;;1.98;;
6735;SDS011;3405;50.576;12.364;2023-08-08T08:51:00;1.55;;;1.35;;
6735;SDS011;3405;50.576;12.364;2023-08-08T08:53:27;2.90;;;1.55;;
6735;SDS011;3405;50.576;12.364;2023-08-08T08:55:53;3.00;;;1.40;;
6735;SDS011;3405;50.576;12.364;2023-08-08T08:58:21;1.90;;;1.30;;
6735;SDS011;3405;50.576;12.364;2023-08-08T09:00:48;1.85;;;1.38;;
6735;SDS011;3405;50.576;12.364;2023-08-08T09:03:13;2.55;;;1.23;;
6735;SDS011;3405;50.576;12.364;2023-08-08T09:05:40;4.22;;;1.40;;
6735;SDS011;3405;50.576;12.364;2023-08-08T09:08:07;2.45;;;1.55;;
6735;SDS011;3405;50.576;12.364;2023-08-08T09:10:34;1.25;;;1.17;;
6735;SDS011;3405;50.576;12.364;2023-08-08T09:13:00;2.50;;;1.40;;
6735;SDS011;3405;50.576;12.364;2023-08-08T09:15:32;2.10;;;1.33;;
6735;SDS011;3405;50.576;12.364;2023-08-08T09:17:59;1.92;;;1.40;;
6735;SDS011;3405;50.576;12.364;2023-08-08T09:20:25;2.03;;;1.27;;
6735;SDS011;3405;50.576;12.364;2023-08-08T09:22:55;3.35;;;1.20;;
6735;SDS011;3405;50.576;12.364;2023-08-08T09:25:21;2.63;;;1.45;;
6735;SDS011;3405;50.576;12.364;2023-08-08T09:27:48;1.80;;;1.30;;
6735;SDS011;3405;50.576;12.364;2023-08-08T09:30:14;2.28;;;1.33;;
6735;SDS011;3405;50.576;12.364;2023-08-08T09:32:42;1.60;;;1.30;;
6735;SDS011;3405;50.576;12.364;2023-08-08T09:35:09;3.17;;;1.40;;
6735;SDS011;3405;50.576;12.364;2023-08-08T09:37:36;1.40;;;1.30;;
6735;SDS011;3405;50.576;12.364;2023-08-08T09:40:03;1.80;;;1.30;;
6735;SDS011;3405;50.576;12.364;2023-08-08T09:42:30;1.42;;;1.33;;
6735;SDS011;3405;50.576;12.364;2023-08-08T09:44:57;2.45;;;1.38;;
6735;SDS011;3405;50.576;12.364;2023-08-08T09:47:23;3.15;;;1.55;;
6735;SDS011;3405;50.576;12.364;2023-08-08T09:49:50;14.32;;;1.85;;
6735;SDS011;3405;50.576;12.364;2023-08-08T09:52:16;6.20;;;1.42;;
6735;SDS011;3405;50.576;12.364;2023-08-08T09:54:42;4.18;;;1.38;;
6735;SDS011;3405;50.576;12.364;2023-08-08T09:57:08;6.30;;;1.83;;
6735;SDS011;3405;50.576;12.364;2023-08-08T09:59:34;4.00;;;1.40;;
6735;SDS011;3405;50.576;12.364;2023-08-08T10:02:01;1.38;;;1.27;;
6735;SDS011;3405;50.576;12.364;2023-08-08T10:04:27;4.28;;;1.40;;
6735;SDS011;3405;50.576;12.364;2023-08-08T10:06:53;5.20;;;1.88;;
6735;SDS011;3405;50.576;12.364;2023-08-08T10:09:19;6.63;;;1.30;;
6735;SDS011;3405;50.576;12.364;2023-08-08T10:11:45;1.75;;;1.30;;
6735;SDS011;3405;50.576;12.364;2023-08-08T10:14:12;2.45;;;1.27;;
6735;SDS011;3405;50.576;12.364;2023-08-08T10:16:41;2.13;;;1.10;;
6735;SDS011;3405;50.576;12.364;2023-08-08T10:19:09;4.22;;;1.35;;
6735;SDS011;3405;50.576;12.364;2023-08-08T10:21:36;2.15;;;1.15;;
6735;SDS011;3405;50.576;12.364;2023-08-08T10:24:05;2.90;;;1.30;;
6735;SDS011;3405;50.576;12.364;2023-08-08T10:26:32;2.67;;;1.15;;
6735;SDS011;3405;50.576;12.364;2023-08-08T10:28:58;2.63;;;1.20;;
6735;SDS011;3405;50.576;12.364;2023-08-08T10:31:25;2.00;;;1.30;;
6735;SDS011;3405;50.576;12.364;2023-08-08T10:34:00;1.55;;;1.20;;
6735;SDS011;3405;50.576;12.364;2023-08-08T10:36:26;2.33;;;1.60;;
6735;SDS011;3405;50.576;12.364;2023-08-08T10:39:10;1.88;;;1.30;;
6735;SDS011;3405;50.576;12.364;2023-08-08T10:41:43;1.42;;;1.10;;
6735;SDS011;3405;50.576;12.364;2023-08-08T10:44:10;1.60;;;1.20;;
6735;SDS011;3405;50.576;12.364;2023-08-08T10:46:35;1.83;;;1.00;;
6735;SDS011;3405;50.576;12.364;2023-08-08T10:49:05;2.35;;;1.40;;
6735;SDS011;3405;50.576;12.364;2023-08-08T10:51:38;1.25;;;1.02;;
6735;SDS011;3405;50.576;12.364;2023-08-08T10:54:05;3.15;;;1.45;;
6735;SDS011;3405;50.576;12.364;2023-08-08T10:56:31;1.48;;;1.35;;
6735;SDS011;3405;50.576;12.364;2023-08-08T10:58:57;1.77;;;0.90;;
6735;SDS011;3405;50.576;12.364;2023-08-08T11:01:26;3.20;;;1.30;;
6735;SDS011;3405;50.576;12.364;2023-08-08T11:03:52;1.48;;;1.23;;
6735;SDS011;3405;50.576;12.364;2023-08-08T11:06:18;1.75;;;1.35;;
6735;SDS011;3405;50.576;12.364;2023-08-08T11:08:44;2.30;;;1.13;;
6735;SDS011;3405;50.576;12.364;2023-08-08T11:11:10;2.13;;;1.30;;
6735;SDS011;3405;50.576;12.364;2023-08-08T11:13:37;1.77;;;1.08;;
6735;SDS011;3405;50.576;12.364;2023-08-08T11:16:03;3.13;;;1.50;;
6735;SDS011;3405;50.576;12.364;2023-08-08T11:18:29;1.15;;;1.02;;
6735;SDS011;3405;50.576;12.364;2023-08-08T11:20:55;2.33;;;1.20;;
6735;SDS011;3405;50.576;12.364;2023-08-08T11:23:21;1.88;;;1.20;;
6735;SDS011;3405;50.576;12.364;2023-08-08T11:25:47;1.40;;;1.20;;
6735;SDS011;3405;50.576;12.364;2023-08-08T11:28:14;1.40;;;1.17;;
6735;SDS011;3405;50.576;12.364;2023-08-08T11:30:44;1.52;;;1.02;;
6735;SDS011;3405;50.576;12.364;2023-08-08T11:33:13;1.23;;;1.10;;
6735;SDS011;3405;50.576;12.364;2023-08-08T11:35:43;1.05;;;0.93;;
6735;SDS011;3405;50.576;12.364;2023-08-08T11:38:10;1.48;;;1.20;;
6735;SDS011;3405;50.576;12.364;2023-08-08T11:40:37;1.65;;;1.10;;
6735;SDS011;3405;50.576;12.364;2023-08-08T11:43:03;3.67;;;1.10;;
6735;SDS011;3405;50.576;12.364;2023-08-08T11:45:29;2.03;;;1.40;;
6735;SDS011;3405;50.576;12.364;2023-08-08T11:47:55;3.40;;;1.08;;
6735;SDS011;3405;50.576;12.364;2023-08-08T11:50:21;1.83;;;1.10;;
6735;SDS011;3405;50.576;12.364;2023-08-08T11:52:50;1.33;;;1.20;;
6735;SDS011;3405;50.576;12.364;2023-08-08T11:55:16;1.75;;;1.10;;
6735;SDS011;3405;50.576;12.364;2023-08-08T11:57:47;1.88;;;1.02;;
6735;SDS011;3405;50.576;12.364;2023-08-08T12:00:13;2.28;;;1.10;;
6735;SDS011;3405;50.576;12.364;2023-08-08T12:02:39;3.72;;;1.23;;
6735;SDS011;3405;50.576;12.364;2023-08-08T12:05:06;3.10;;;1.30;;
6735;SDS011;3405;50.576;12.364;2023-08-08T12:07:35;2.75;;;1.00;;
6735;SDS011;3405;50.576;12.364;2023-08-08T12:10:03;2.53;;;1.15;;
6735;SDS011;3405;50.576;12.364;2023-08-08T12:12:30;0.80;;;0.77;;
6735;SDS011;3405;50.576;12.364;2023-08-08T12:14:58;1.23;;;1.13;;
6735;SDS011;3405;50.576;12.364;2023-08-08T12:17:25;3.45;;;1.08;;
6735;SDS011;3405;50.576;12.364;2023-08-08T12:19:51;2.47;;;0.90;;
6735;SDS011;3405;50.576;12.364;2023-08-08T12:22:17;3.83;;;1.20;;
6735;SDS011;3405;50.576;12.364;2023-08-08T12:24:43;1.70;;;1.25;;
6735;SDS011;3405;50.576;12.364;2023-08-08T12:27:09;1.40;;;1.13;;
6735;SDS011;3405;50.576;12.364;2023-08-08T12:29:35;1.50;;;1.15;;
6735;SDS011;3405;50.576;12.364;2023-08-08T12:32:01;1.52;;;1.33;;
6735;SDS011;3405;50.576;12.364;2023-08-08T12:34:27;1.30;;;0.95;;
6735;SDS011;3405;50.576;12.364;2023-08-08T12:36:53;2.53;;;1.20;;
6735;SDS011;3405;50.576;12.364;2023-08-08T12:39:19;4.43;;;1.40;;
6735;SDS011;3405;50.576;12.364;2023-08-08T12:41:45;1.52;;;1.05;;
6735;SDS011;3405;50.576;12.364;2023-08-08T12:44:11;1.42;;;1.13;;
6735;SDS011;3405;50.576;12.364;2023-08-08T12:46:37;1.85;;;1.20;;
6735;SDS011;3405;50.576;12.364;2023-08-08T12:49:03;1.40;;;1.20;;
6735;SDS011;3405;50.576;12.364;2023-08-08T12:51:29;2.05;;;1.10;;
6735;SDS011;3405;50.576;12.364;2023-08-08T12:53:55;1.98;;;1.10;;
6735;SDS011;3405;50.576;12.364;2023-08-08T12:56:21;1.80;;;1.17;;
6735;SDS011;3405;50.576;12.364;2023-08-08T12:58:47;2.15;;;1.00;;
6735;SDS011;3405;50.576;12.364;2023-08-08T13:01:13;1.23;;;1.05;;
6735;SDS011;3405;50.576;12.364;2023-08-08T13:03:38;1.83;;;0.90;;
6735;SDS011;3405;50.576;12.364;2023-08-08T13:06:05;1.23;;;1.00;;
6735;SDS011;3405;50.576;12.364;2023-08-08T13:08:30;3.55;;;1.52;;
6735;SDS011;3405;50.576;12.364;2023-08-08T13:10:57;1.10;;;1.00;;
6735;SDS011;3405;50.576;12.364;2023-08-08T13:13:23;1.33;;;1.08;;
6735;SDS011;3405;50.576;12.364;2023-08-08T13:15:51;1.75;;;1.00;;
6735;SDS011;3405;50.576;12.364;2023-08-08T13:18:17;2.42;;;1.20;;
6735;SDS011;3405;50.576;12.364;2023-08-08T13:20:43;1.00;;;0.75;;
6735;SDS011;3405;50.576;12.364;2023-08-08T13:23:09;3.35;;;1.25;;
6735;SDS011;3405;50.576;12.364;2023-08-08T13:25:35;1.42;;;0.90;;
6735;SDS011;3405;50.576;12.364;2023-08-08T13:28:01;1.80;;;0.90;;
6735;SDS011;3405;50.576;12.364;2023-08-08T13:30:28;1.45;;;1.13;;
6735;SDS011;3405;50.576;12.364;2023-08-08T13:32:54;1.20;;;0.93;;
6735;SDS011;3405;50.576;12.364;2023-08-08T13:35:20;1.05;;;0.80;;
6735;SDS011;3405;50.576;12.364;2023-08-08T13:37:46;1.25;;;1.00;;
6735;SDS011;3405;50.576;12.364;2023-08-08T13:40:16;1.38;;;1.13;;
6735;SDS011;3405;50.576;12.364;2023-08-08T13:42:43;2.38;;;1.40;;
6735;SDS011;3405;50.576;12.364;2023-08-08T13:45:12;1.90;;;1.38;;
6735;SDS011;3405;50.576;12.364;2023-08-08T13:47:38;1.25;;;1.05;;
6735;SDS011;3405;50.576;12.364;2023-08-08T13:50:04;1.88;;;1.10;;
6735;SDS011;3405;50.576;12.364;2023-08-08T13:52:31;1.83;;;1.10;;
6735;SDS011;3405;50.576;12.364;2023-08-08T13:54:58;1.90;;;0.80;;
6735;SDS011;3405;50.576;12.364;2023-08-08T13:57:24;1.13;;;1.02;;
6735;SDS011;3405;50.576;12.364;2023-08-08T13:59:50;1.23;;;1.13;;
6735;SDS011;3405;50.576;12.364;2023-08-08T14:02:16;1.00;;;0.90;;
6735;SDS011;3405;50.576;12.364;2023-08-08T14:04:43;1.38;;;1.20;;
6735;SDS011;3405;50.576;12.364;2023-08-08T14:07:09;1.25;;;0.98;;
6735;SDS011;3405;50.576;12.364;2023-08-08T14:09:35;1.08;;;0.80;;
6735;SDS011;3405;50.576;12.364;2023-08-08T14:12:01;0.88;;;0.80;;
6735;SDS011;3405;50.576;12.364;2023-08-08T14:14:27;1.02;;;0.93;;
6735;SDS011;3405;50.576;12.364;2023-08-08T14:16:53;1.98;;;1.08;;
6735;SDS011;3405;50.576;12.364;2023-08-08T14:19:19;2.00;;;0.98;;
6735;SDS011;3405;50.576;12.364;2023-08-08T14:21:45;2.10;;;1.20;;
6735;SDS011;3405;50.576;12.364;2023-08-08T14:24:11;1.05;;;0.90;;
6735;SDS011;3405;50.576;12.364;2023-08-08T14:26:37;0.95;;;0.90;;
6735;SDS011;3405;50.576;12.364;2023-08-08T14:29:03;1.52;;;1.10;;
6735;SDS011;3405;50.576;12.364;2023-08-08T14:31:29;1.90;;;0.90;;
6735;SDS011;3405;50.576;12.364;2023-08-08T14:33:55;1.38;;;1.13;;
6735;SDS011;3405;50.576;12.364;2023-08-08T14:36:21;1.85;;;0.80;;
6735;SDS011;3405;50.576;12.364;2023-08-08T14:38:47;1.30;;;1.10;;
6735;SDS011;3405;50.576;12.364;2023-08-08T14:41:13;2.22;;;1.10;;
6735;SDS011;3405;50.576;12.364;2023-08-08T14:43:39;2.67;;;1.05;;
6735;SDS011;3405;50.576;12.364;2023-08-08T14:46:05;1.73;;;1.02;;
6735;SDS011;3405;50.576;12.364;2023-08-08T14:48:31;1.30;;;1.02;;
6735;SDS011;3405;50.576;12.364;2023-08-08T14:50:59;0.80;;;0.80;;
6735;SDS011;3405;50.576;12.364;2023-08-08T14:53:25;0.90;;;0.90;;
6735;SDS011;3405;50.576;12.364;2023-08-08T14:55:51;1.90;;;1.10;;